X  CloseMetar Aviation Weather Data     EKSB Sønderborg

Temperature

10°C Temperature

3°C Dewpoint

62% Humidity



Wind

37 KM/H

23 MPH

10 M/S

20 KTS



250°
West South
West
Current Conditions

Mostly Cloudy Mostly Cloudy
Pressure 1003.92 (hPa) - 29.65 (in)
Visibility 6.2 (mi) - 10 (km)
Airport
Airport-code EKSB

Location Sønderborg 40 (km)

Metar:
EKSB 021020Z 25020G35KT 210V300 9999 BKN027 10/03 Q1004

Time: 02-04-2020 12:20